Time;durP1;ratioP1;P1;durP2;ratioP2;P2;SDS_P1;SDS_P2;PMS_P1;PMS_P2;Temp;Humidity;BMP_temperature;BMP_pressure;BME280_temperature;BME280_humidity;BME280_pressure;Samples;Min_cycle;Max_cycle;Signal;HPM_P1;HPM_P2
2021/12/07 00:00:40;;;;;;;54.09;17.01;;;;;;;;;;363544;147;857321;-59
2021/12/07 00:01:42;;;;;;;55.59;18.09;;;;;;;;;;362797;146;857308;-59
2021/12/07 00:02:44;;;;;;;87.11;22.93;;;;;;;;;;361679;147;857335;-59
2021/12/07 00:03:45;;;;;;;91.07;26.09;;;;;;;;;;362764;147;858699;-59
2021/12/07 00:04:47;;;;;;;69.64;20.57;;;;;;;;;;362923;147;866502;-59
2021/12/07 00:05:50;;;;;;;60.94;18.56;;;;;;;;;;360240;147;860515;-59
2021/12/07 00:06:52;;;;;;;49.60;17.01;;;;;;;;;;359594;147;865480;-59
2021/12/07 00:07:53;;;;;;;46.20;15.39;;;;;;;;;;359753;147;858980;-59
2021/12/07 00:08:56;;;;;;;51.12;15.07;;;;;;;;;;361208;147;866238;-60
2021/12/07 00:09:58;;;;;;;33.10;14.44;;;;;;;;;;360653;149;856910;-59
2021/12/07 00:10:59;;;;;;;92.27;21.05;;;;;;;;;;360406;148;858349;-60
2021/12/07 00:12:04;;;;;;;89.99;24.65;;;;;;;;;;358860;147;864681;-60
2021/12/07 00:13:05;;;;;;;103.51;22.21;;;;;;;;;;356267;147;865144;-59
2021/12/07 00:14:23;;;;;;;88.29;21.93;;;;;;;;;;360264;147;857589;-59
2021/12/07 00:15:12;;;;;;;116.11;18.62;;;;;;;;;;356795;147;859042;-60
2021/12/07 00:16:14;;;;;;;109.29;17.69;;;;;;;;;;359569;147;857134;-59
2021/12/07 00:17:15;;;;;;;99.14;17.71;;;;;;;;;;360127;149;857322;-58
2021/12/07 00:18:17;;;;;;;61.90;16.83;;;;;;;;;;359128;148;857810;-59
2021/12/07 00:19:18;;;;;;;117.82;17.04;;;;;;;;;;361178;147;859159;-58
2021/12/07 00:20:21;;;;;;;60.61;17.10;;;;;;;;;;360508;149;857266;-59
2021/12/07 00:21:22;;;;;;;102.94;23.05;;;;;;;;;;361174;147;858962;-58
2021/12/07 00:22:24;;;;;;;101.46;21.23;;;;;;;;;;359520;147;867168;-59
2021/12/07 00:23:26;;;;;;;75.06;19.73;;;;;;;;;;358531;147;865198;-59
2021/12/07 00:24:27;;;;;;;86.29;19.69;;;;;;;;;;360347;147;857230;-58
2021/12/07 00:25:29;;;;;;;67.49;18.02;;;;;;;;;;360063;147;864397;-59
2021/12/07 00:26:30;;;;;;;161.96;40.59;;;;;;;;;;359737;147;865685;-59
2021/12/07 00:27:32;;;;;;;105.52;28.79;;;;;;;;;;360173;147;859928;-58
2021/12/07 00:28:34;;;;;;;91.24;27.51;;;;;;;;;;360273;148;865819;-58
2021/12/07 00:29:35;;;;;;;124.44;26.76;;;;;;;;;;360195;148;859140;-59
2021/12/07 00:30:37;;;;;;;59.54;20.36;;;;;;;;;;359041;149;857155;-58
2021/12/07 00:31:43;;;;;;;81.05;18.59;;;;;;;;;;359722;147;857695;-58
2021/12/07 00:33:05;;;;;;;95.74;17.58;;;;;;;;;;358957;147;857219;-59
2021/12/07 00:34:06;;;;;;;44.81;16.04;;;;;;;;;;359118;148;857701;-59
2021/12/07 00:36:03;;;;;;;58.52;14.06;;;;;;;;;;360335;147;857739;-58
2021/12/07 00:37:04;;;;;;;78.00;14.76;;;;;;;;;;361404;147;857942;-58
2021/12/07 00:38:07;;;;;;;54.92;15.24;;;;;;;;;;359180;149;866120;-58
2021/12/07 00:39:09;;;;;;;48.15;13.64;;;;;;;;;;360583;147;858661;-58
2021/12/07 00:40:11;;;;;;;53.70;14.02;;;;;;;;;;357905;147;858100;-58
2021/12/07 00:41:13;;;;;;;51.43;13.89;;;;;;;;;;358358;146;857939;-58
2021/12/07 00:42:15;;;;;;;50.69;14.19;;;;;;;;;;360315;149;857303;-59
2021/12/07 00:43:16;;;;;;;71.42;14.03;;;;;;;;;;359663;147;861718;-58
2021/12/07 00:44:18;;;;;;;83.11;14.99;;;;;;;;;;356478;147;857227;-58
2021/12/07 00:45:20;;;;;;;66.63;13.50;;;;;;;;;;358273;147;863396;-58
2021/12/07 00:46:24;;;;;;;74.62;13.87;;;;;;;;;;359952;148;859893;-58
2021/12/07 00:47:25;;;;;;;46.94;13.74;;;;;;;;;;359271;148;858763;-58
2021/12/07 00:48:27;;;;;;;40.84;13.27;;;;;;;;;;360148;147;858956;-59
2021/12/07 00:49:29;;;;;;;51.06;13.65;;;;;;;;;;359893;147;864886;-59
2021/12/07 00:50:30;;;;;;;59.94;14.04;;;;;;;;;;359407;147;864659;-59
2021/12/07 00:51:32;;;;;;;46.09;13.31;;;;;;;;;;357523;147;864778;-58
2021/12/07 00:52:33;;;;;;;132.14;15.81;;;;;;;;;;359128;148;857684;-58
2021/12/07 00:53:35;;;;;;;47.20;13.76;;;;;;;;;;360004;148;857296;-59
2021/12/07 00:54:37;;;;;;;37.16;12.04;;;;;;;;;;359649;147;860331;-59
2021/12/07 00:55:40;;;;;;;80.30;14.41;;;;;;;;;;360828;147;863859;-59
2021/12/07 00:56:42;;;;;;;49.81;13.44;;;;;;;;;;360212;147;857177;-59
2021/12/07 00:57:43;;;;;;;49.45;13.68;;;;;;;;;;359032;147;866564;-59
2021/12/07 00:58:45;;;;;;;41.77;13.12;;;;;;;;;;358210;149;857883;-59
2021/12/07 00:59:46;;;;;;;63.90;14.69;;;;;;;;;;360236;147;857338;-59
2021/12/07 01:00:50;;;;;;;79.71;16.89;;;;;;;;;;361174;147;865889;-60
2021/12/07 01:01:52;;;;;;;59.48;15.47;;;;;;;;;;363791;147;860094;-58
2021/12/07 01:02:54;;;;;;;63.46;14.24;;;;;;;;;;360681;147;857725;-58
2021/12/07 01:03:56;;;;;;;56.52;15.24;;;;;;;;;;358812;148;864592;-59
2021/12/07 01:04:58;;;;;;;33.54;13.91;;;;;;;;;;360893;147;859838;-60
2021/12/07 01:06:18;;;;;;;48.87;13.83;;;;;;;;;;362639;147;865373;-58
2021/12/07 01:07:23;;;;;;;67.51;21.95;;;;;;;;;;359629;147;857703;-58
2021/12/07 01:09:25;;;;;;;90.72;22.49;;;;;;;;;;345044;152;858130;-60
2021/12/07 01:24:58;;;;;;;37.81;14.98;;;;;;;;;;343663;153;858062;-59
2021/12/07 01:25:59;;;;;;;48.75;16.02;;;;;;;;;;348164;147;859910;-59
2021/12/07 01:27:03;;;;;;;49.41;13.76;;;;;;;;;;360183;147;866640;-59
2021/12/07 01:28:14;;;;;;;66.88;15.39;;;;;;;;;;362936;146;865225;-60
2021/12/07 01:29:08;;;;;;;63.33;15.68;;;;;;;;;;363178;146;857279;-60
2021/12/07 01:30:17;;;;;;;45.68;13.01;;;;;;;;;;362253;147;857192;-61
2021/12/07 01:31:23;;;;;;;56.90;14.23;;;;;;;;;;362353;147;858120;-58
2021/12/07 01:39:48;;;;;;;44.48;12.19;;;;;;;;;;347546;152;857704;-59
2021/12/07 01:45:03;;;;;;;41.94;11.82;;;;;;;;;;363024;147;860553;-59
2021/12/07 01:49:58;;;;;;;33.68;11.89;;;;;;;;;;361968;147;858625;-59
2021/12/07 01:50:50;;;;;;;36.54;13.70;;;;;;;;;;360438;147;857920;-59
2021/12/07 01:52:01;;;;;;;35.15;13.47;;;;;;;;;;362502;147;860564;-59
2021/12/07 01:53:09;;;;;;;28.52;12.95;;;;;;;;;;361585;147;860013;-60
2021/12/07 02:00:26;;;;;;;37.27;14.77;;;;;;;;;;363412;146;865832;-59
2021/12/07 02:01:28;;;;;;;33.07;13.09;;;;;;;;;;362577;147;858518;-59
2021/12/07 02:02:30;;;;;;;36.82;14.20;;;;;;;;;;361045;147;865400;-59
2021/12/07 02:03:31;;;;;;;44.58;15.21;;;;;;;;;;362798;146;865557;-59
2021/12/07 02:04:33;;;;;;;40.98;15.11;;;;;;;;;;363318;146;860835;-59
2021/12/07 02:05:35;;;;;;;36.53;15.01;;;;;;;;;;364499;147;863753;-58
2021/12/07 02:06:36;;;;;;;36.21;15.15;;;;;;;;;;363060;147;864982;-58
2021/12/07 02:07:38;;;;;;;38.54;14.69;;;;;;;;;;362872;146;864835;-58
2021/12/07 02:08:39;;;;;;;37.27;15.02;;;;;;;;;;361474;147;857214;-59
2021/12/07 02:09:44;;;;;;;32.84;14.21;;;;;;;;;;360923;147;857225;-58
2021/12/07 02:10:45;;;;;;;33.86;14.21;;;;;;;;;;364802;146;859070;-58
2021/12/07 02:11:49;;;;;;;35.63;14.95;;;;;;;;;;362885;147;864919;-59
2021/12/07 02:12:52;;;;;;;36.73;14.68;;;;;;;;;;364521;147;857300;-58
2021/12/07 02:14:58;;;;;;;37.56;16.12;;;;;;;;;;361769;147;856764;-58
2021/12/07 02:16:00;;;;;;;39.58;14.93;;;;;;;;;;364715;147;857736;-59
2021/12/07 02:17:09;;;;;;;31.84;14.77;;;;;;;;;;353186;150;866249;-59
2021/12/07 02:18:10;;;;;;;36.38;14.75;;;;;;;;;;356349;150;864926;-59
2021/12/07 02:19:12;;;;;;;39.51;14.34;;;;;;;;;;360993;147;857167;-58
2021/12/07 02:20:14;;;;;;;31.91;13.30;;;;;;;;;;359311;147;864985;-58
2021/12/07 02:21:17;;;;;;;27.19;12.96;;;;;;;;;;365375;146;857281;-59
2021/12/07 02:22:18;;;;;;;39.85;13.46;;;;;;;;;;362581;147;857173;-59
2021/12/07 02:23:20;;;;;;;36.73;14.35;;;;;;;;;;361754;147;857228;-58
2021/12/07 02:24:21;;;;;;;28.79;13.39;;;;;;;;;;363606;147;857708;-58
2021/12/07 02:25:23;;;;;;;32.77;12.91;;;;;;;;;;361402;147;857206;-60
2021/12/07 02:26:26;;;;;;;27.16;12.23;;;;;;;;;;362261;147;858152;-58
2021/12/07 02:27:27;;;;;;;32.04;13.94;;;;;;;;;;363204;147;857298;-58
2021/12/07 02:28:29;;;;;;;36.15;13.32;;;;;;;;;;362815;146;862076;-59
2021/12/07 02:29:30;;;;;;;37.06;14.21;;;;;;;;;;361252;147;857367;-59
2021/12/07 02:30:32;;;;;;;34.57;13.74;;;;;;;;;;364453;146;865040;-58
2021/12/07 02:31:34;;;;;;;31.76;13.54;;;;;;;;;;364896;147;864986;-58
2021/12/07 02:32:35;;;;;;;34.08;13.69;;;;;;;;;;362731;146;857791;-58
2021/12/07 02:33:37;;;;;;;32.05;13.84;;;;;;;;;;364847;147;857242;-58
2021/12/07 02:34:44;;;;;;;28.21;13.16;;;;;;;;;;361781;147;861144;-59
2021/12/07 02:35:42;;;;;;;30.32;13.73;;;;;;;;;;365071;146;858983;-58
2021/12/07 02:36:44;;;;;;;28.58;12.70;;;;;;;;;;361716;147;864958;-58
2021/12/07 02:37:45;;;;;;;30.26;13.79;;;;;;;;;;365581;147;866714;-59
2021/12/07 02:38:47;;;;;;;27.88;12.84;;;;;;;;;;364641;146;857851;-58
2021/12/07 02:39:48;;;;;;;32.10;12.61;;;;;;;;;;360229;147;857448;-59
2021/12/07 02:40:50;;;;;;;31.37;13.85;;;;;;;;;;359268;147;859804;-59
2021/12/07 02:41:52;;;;;;;33.03;14.89;;;;;;;;;;363426;146;865803;-58
2021/12/07 02:42:53;;;;;;;26.39;12.03;;;;;;;;;;365069;146;859970;-59
2021/12/07 02:43:55;;;;;;;28.71;12.91;;;;;;;;;;365375;147;857226;-58
2021/12/07 02:44:56;;;;;;;31.24;14.15;;;;;;;;;;360437;147;856593;-58
2021/12/07 02:58:03;;;;;;;27.24;10.86;;;;;;;3.54;72.70;99088.09;373027;142;875717;-58
2021/12/07 02:59:04;;;;;;;19.93;10.03;;;;;;;3.41;72.67;99094.84;363161;147;857207;-59
2021/12/07 03:00:14;;;;;;;18.83;9.58;;;;;;;3.38;72.70;99095.67;363118;145;858499;-61
2021/12/07 03:01:18;;;;;;;16.52;8.73;;;;;;;3.27;72.12;99089.61;362145;147;857815;-60
2021/12/07 03:02:19;;;;;;;16.46;8.70;;;;;;;3.26;72.80;99093.02;363185;147;857099;-58
2021/12/07 03:03:21;;;;;;;18.08;8.52;;;;;;;3.30;73.00;99080.27;363348;145;857327;-59
2021/12/07 03:04:28;;;;;;;16.49;8.16;;;;;;;3.34;72.67;99078.58;361737;147;857681;-59
2021/12/07 03:06:52;;;;;;;15.29;8.18;;;;;;;3.57;72.64;99088.11;357846;148;865923;-58
2021/12/07 03:08:06;;;;;;;15.82;8.81;;;;;;;3.63;71.66;99095.84;357799;150;857742;-59
2021/12/07 03:09:38;;;;;;;17.19;8.83;;;;;;;3.71;72.08;99099.33;356094;150;857901;-59
2021/12/07 03:26:05;;;;;;;19.72;10.69;;;;;;;;;;358874;149;857504;-59
2021/12/07 03:27:03;;;;;;;23.33;11.06;;;;;;;;;;357774;149;857753;-59
2021/12/07 03:28:05;;;;;;;24.91;11.61;;;;;;;;;;358046;147;857321;-58
2021/12/07 03:29:06;;;;;;;23.31;11.31;;;;;;;;;;357915;149;857749;-59
2021/12/07 03:30:10;;;;;;;23.22;11.96;;;;;;;;;;358563;149;857782;-58
2021/12/07 03:31:12;;;;;;;20.74;11.58;;;;;;;;;;359931;147;858503;-60
2021/12/07 03:32:14;;;;;;;24.38;11.61;;;;;;;;;;358318;149;864725;-58
2021/12/07 03:33:15;;;;;;;22.76;10.20;;;;;;;;;;359309;149;858305;-59
2021/12/07 03:34:17;;;;;;;21.26;10.74;;;;;;;;;;358209;148;859246;-58
2021/12/07 03:35:18;;;;;;;21.61;10.51;;;;;;;;;;358136;147;858922;-58
2021/12/07 03:36:20;;;;;;;22.76;11.19;;;;;;;;;;358751;149;857193;-58
2021/12/07 03:37:22;;;;;;;20.20;10.29;;;;;;;;;;361377;147;864728;-59
2021/12/07 03:38:23;;;;;;;20.81;11.17;;;;;;;;;;359357;148;857243;-59
2021/12/07 03:39:25;;;;;;;25.09;11.89;;;;;;;;;;362942;147;857358;-59
2021/12/07 03:40:26;;;;;;;25.65;12.67;;;;;;;;;;360049;147;859136;-57
2021/12/07 03:41:28;;;;;;;26.21;11.41;;;;;;;;;;357873;147;865140;-59
2021/12/07 03:42:30;;;;;;;25.09;11.57;;;;;;;;;;358788;148;857545;-59
2021/12/07 03:43:32;;;;;;;24.41;11.70;;;;;;;;;;358764;149;859607;-59
2021/12/07 03:44:34;;;;;;;23.92;12.11;;;;;;;;;;359871;147;858939;-59
2021/12/07 03:45:36;;;;;;;25.89;12.27;;;;;;;;;;358892;147;857955;-58
2021/12/07 03:46:37;;;;;;;26.30;11.42;;;;;;;;;;358762;147;865685;-59
2021/12/07 03:47:39;;;;;;;26.39;11.27;;;;;;;;;;358187;149;858185;-59
2021/12/07 03:48:41;;;;;;;22.99;11.11;;;;;;;;;;358176;147;864881;-58
2021/12/07 03:49:42;;;;;;;25.70;11.57;;;;;;;;;;359004;149;858474;-59
2021/12/07 03:50:44;;;;;;;25.05;10.91;;;;;;;;;;358646;147;864739;-59
2021/12/07 03:51:46;;;;;;;26.28;11.47;;;;;;;;;;358482;148;864825;-58
2021/12/07 03:52:50;;;;;;;28.56;10.87;;;;;;;;;;359228;148;865228;-58
2021/12/07 03:53:51;;;;;;;27.95;11.04;;;;;;;;;;359258;148;866063;-58
2021/12/07 03:54:53;;;;;;;23.81;10.82;;;;;;;;;;359419;148;859355;-59
2021/12/07 03:55:55;;;;;;;24.91;12.34;;;;;;;;;;359168;148;866734;-59
2021/12/07 03:56:57;;;;;;;29.72;11.87;;;;;;;;;;357970;148;859206;-58
2021/12/07 03:57:58;;;;;;;25.84;11.80;;;;;;;;;;358455;149;856271;-59
2021/12/07 03:59:00;;;;;;;22.78;11.39;;;;;;;;;;357398;148;859927;-61
2021/12/07 04:00:02;;;;;;;29.35;13.31;;;;;;;;;;357832;149;866545;-59
2021/12/07 04:01:05;;;;;;;24.19;12.70;;;;;;;;;;358763;148;857650;-59
2021/12/07 04:02:07;;;;;;;29.64;12.44;;;;;;;;;;358008;147;858861;-58
2021/12/07 04:03:11;;;;;;;23.52;11.40;;;;;;;;;;357225;148;859205;-59
2021/12/07 04:04:12;;;;;;;24.30;10.89;;;;;;;;;;357502;148;857673;-58
2021/12/07 04:05:15;;;;;;;22.95;11.26;;;;;;;;;;358649;149;859561;-60
2021/12/07 04:06:19;;;;;;;21.00;10.66;;;;;;;;;;359690;148;865097;-57
2021/12/07 04:07:21;;;;;;;25.08;11.53;;;;;;;;;;359754;148;857678;-59
2021/12/07 04:08:25;;;;;;;27.93;11.96;;;;;;;;;;359107;149;858823;-59
2021/12/07 04:09:26;;;;;;;29.94;12.48;;;;;;;;;;357038;147;863245;-59
2021/12/07 04:10:28;;;;;;;28.77;12.41;;;;;;;;;;359398;148;859003;-60
2021/12/07 04:11:30;;;;;;;31.58;14.44;;;;;;;;;;358616;148;858859;-59
2021/12/07 04:12:31;;;;;;;27.34;13.51;;;;;;;;;;357096;148;857895;-59
2021/12/07 04:13:33;;;;;;;31.29;13.79;;;;;;;;;;357243;148;857282;-59
2021/12/07 04:14:34;;;;;;;30.96;14.18;;;;;;;;;;357436;150;857227;-58
2021/12/07 04:15:36;;;;;;;27.54;13.28;;;;;;;;;;358120;148;859063;-59
2021/12/07 04:16:38;;;;;;;26.57;12.76;;;;;;;;;;358073;147;865467;-58
2021/12/07 04:17:39;;;;;;;28.20;11.88;;;;;;;;;;356679;149;858239;-59
2021/12/07 04:18:41;;;;;;;27.88;12.44;;;;;;;;;;357457;150;857070;-58
2021/12/07 04:19:42;;;;;;;24.96;12.37;;;;;;;;;;357229;149;857984;-58
2021/12/07 04:20:44;;;;;;;24.37;11.88;;;;;;;;;;357409;148;857417;-60
2021/12/07 04:21:45;;;;;;;26.55;13.20;;;;;;;;;;358995;148;866582;-59
2021/12/07 04:22:47;;;;;;;25.50;11.59;;;;;;;;;;358788;148;858340;-58
2021/12/07 04:23:49;;;;;;;25.73;12.12;;;;;;;;;;357905;147;866984;-60
2021/12/07 04:24:51;;;;;;;25.00;13.06;;;;;;;;;;356665;148;857248;-59
2021/12/07 04:25:52;;;;;;;26.13;12.24;;;;;;;;;;359005;147;866000;-59
2021/12/07 04:26:54;;;;;;;29.51;12.69;;;;;;;;;;359018;147;859028;-59
2021/12/07 04:27:56;;;;;;;27.13;12.21;;;;;;;;;;357213;149;865699;-60
2021/12/07 04:28:58;;;;;;;33.67;13.36;;;;;;;;;;358644;149;865078;-58
2021/12/07 04:29:59;;;;;;;37.73;14.03;;;;;;;;;;357876;149;865051;-59
2021/12/07 04:31:01;;;;;;;31.27;12.74;;;;;;;;;;359235;148;864125;-60
2021/12/07 04:32:03;;;;;;;34.06;13.10;;;;;;;;;;359068;148;857166;-59
2021/12/07 04:33:05;;;;;;;29.43;12.41;;;;;;;;;;358505;148;866626;-59
2021/12/07 04:34:07;;;;;;;24.25;12.99;;;;;;;;;;350888;150;858607;-59
2021/12/07 04:35:09;;;;;;;21.59;11.29;;;;;;;;;;352322;151;858986;-57
2021/12/07 04:36:10;;;;;;;36.17;13.00;;;;;;;;;;356166;150;861811;-60
2021/12/07 04:37:12;;;;;;;23.31;12.10;;;;;;;;;;357652;148;858892;-60
2021/12/07 04:38:14;;;;;;;25.16;12.44;;;;;;;;;;358548;147;858823;-59
2021/12/07 04:39:15;;;;;;;22.11;11.76;;;;;;;;;;358998;148;865142;-59
2021/12/07 04:40:22;;;;;;;24.70;12.41;;;;;;;;;;358213;148;859023;-59
2021/12/07 04:41:23;;;;;;;27.36;13.48;;;;;;;;;;358152;147;857236;-60
2021/12/07 04:42:26;;;;;;;28.77;13.59;;;;;;;;;;356284;148;858749;-61
2021/12/07 04:43:28;;;;;;;24.55;12.65;;;;;;;;;;355338;149;857249;-60
2021/12/07 04:44:31;;;;;;;22.79;11.07;;;;;;;;;;359180;147;857592;-60
2021/12/07 04:45:48;;;;;;;23.86;11.66;;;;;;;;;;358573;148;864768;-60
2021/12/07 04:46:44;;;;;;;28.57;13.38;;;;;;;;;;355856;147;857202;-61
2021/12/07 04:48:23;;;;;;;26.84;14.64;;;;;;;;;;355508;148;865272;-60
2021/12/07 04:49:23;;;;;;;30.66;15.42;;;;;;;;;;352911;149;857850;-60
2021/12/07 04:57:56;;;;;;;23.32;11.93;;;;;;;;;;357167;148;857882;-61
2021/12/07 04:58:57;;;;;;;24.48;11.71;;;;;;;;;;351854;149;857408;-59
2021/12/07 05:00:01;;;;;;;25.51;12.67;;;;;;;;;;350505;150;866174;-60
2021/12/07 05:01:08;;;;;;;24.92;13.25;;;;;;;;;;350778;150;864064;-62
2021/12/07 05:02:06;;;;;;;21.47;11.64;;;;;;;;;;350173;149;856096;-61
2021/12/07 05:03:12;;;;;;;22.19;11.26;;;;;;;;;;351663;150;856579;-60
2021/12/07 05:04:17;;;;;;;23.23;12.13;;;;;;;;;;348833;153;863625;-60
2021/12/07 05:05:16;;;;;;;23.00;11.14;;;;;;;;;;349189;149;856031;-63
2021/12/07 05:06:23;;;;;;;25.57;12.05;;;;;;;;;;350400;150;856413;-59
2021/12/07 05:07:31;;;;;;;21.62;12.17;;;;;;;;;;350378;150;856734;-60
2021/12/07 05:08:41;;;;;;;22.21;10.59;;;;;;;;;;349636;149;863594;-60
2021/12/07 05:10:18;;;;;;;22.04;10.93;;;;;;;;;;351189;150;856764;-60
2021/12/07 05:12:05;;;;;;;22.72;11.32;;;;;;;;;;349628;149;858953;-61
2021/12/07 05:15:31;;;;;;;;;;;;;;;;;;349268;149;856658;-61
2021/12/07 05:17:59;;;;;;;19.41;10.76;;;;;;;;;;350767;150;857750;-60
2021/12/07 05:24:11;;;;;;;42.57;21.36;;;;;;;;;;350891;150;859248;-59
2021/12/07 05:37:57;;;;;;;22.79;12.97;;;;;;;;;;349555;150;866196;-59
2021/12/07 05:38:57;;;;;;;25.44;12.61;;;;;;;;;;351086;150;864562;-60
2021/12/07 05:39:59;;;;;;;26.84;13.53;;;;;;;;;;350405;150;857111;-60
2021/12/07 05:41:01;;;;;;;24.14;13.33;;;;;;;;;;350661;150;863974;-60
2021/12/07 05:42:02;;;;;;;22.64;12.01;;;;;;;;;;349687;150;864713;-59
2021/12/07 05:43:04;;;;;;;19.82;11.42;;;;;;;;;;350820;151;863682;-59
2021/12/07 05:44:06;;;;;;;17.61;10.20;;;;;;;;;;350907;149;859193;-59
2021/12/07 05:45:09;;;;;;;21.04;10.89;;;;;;;;;;352078;150;866722;-60
2021/12/07 05:46:11;;;;;;;21.06;11.15;;;;;;;;;;352063;150;859259;-59
2021/12/07 05:47:12;;;;;;;19.47;10.95;;;;;;;;;;350580;149;857549;-59
2021/12/07 05:48:14;;;;;;;20.14;9.91;;;;;;;;;;352322;150;865625;-59
2021/12/07 05:49:16;;;;;;;22.38;11.59;;;;;;;;;;348645;153;860467;-60
2021/12/07 05:50:19;;;;;;;19.18;10.07;;;;;;;;;;351317;150;858782;-60
2021/12/07 05:51:21;;;;;;;19.41;10.80;;;;;;;;;;349713;149;865396;-59
2021/12/07 05:52:22;;;;;;;21.01;10.36;;;;;;;;;;350825;150;865535;-59
2021/12/07 05:53:24;;;;;;;21.95;10.64;;;;;;;;;;350860;150;862575;-60
2021/12/07 05:54:25;;;;;;;20.51;10.38;;;;;;;;;;351384;149;859525;-60
2021/12/07 05:55:27;;;;;;;21.53;11.14;;;;;;;;;;350525;150;860312;-59
2021/12/07 05:56:29;;;;;;;20.19;10.39;;;;;;;;;;349254;149;857473;-61
2021/12/07 05:57:30;;;;;;;20.22;11.00;;;;;;;;;;349590;149;866291;-61
2021/12/07 05:58:32;;;;;;;22.05;11.19;;;;;;;;;;350662;150;866308;-62
2021/12/07 05:59:33;;;;;;;25.25;11.27;;;;;;;;;;354533;149;859479;-66
2021/12/07 06:00:36;;;;;;;23.58;11.06;;;;;;;;;;356059;149;861901;-59
2021/12/07 06:01:38;;;;;;;21.37;11.01;;;;;;;;;;356490;148;857340;-63
2021/12/07 06:02:40;;;;;;;20.04;11.10;;;;;;;;;;353434;150;857173;-61
2021/12/07 06:03:41;;;;;;;22.09;11.61;;;;;;;;;;356265;151;857166;-62
2021/12/07 06:04:43;;;;;;;19.83;11.81;;;;;;;;;;355199;149;866616;-62
2021/12/07 06:05:44;;;;;;;22.08;11.72;;;;;;;;;;354926;150;865517;-65
2021/12/07 06:06:46;;;;;;;21.36;10.93;;;;;;;;;;357139;148;857434;-58
2021/12/07 06:07:48;;;;;;;21.50;11.38;;;;;;;;;;355626;149;864809;-61
2021/12/07 06:08:49;;;;;;;23.40;10.99;;;;;;;;;;356105;149;859596;-61
2021/12/07 06:09:51;;;;;;;19.95;10.98;;;;;;;;;;354893;149;864948;-62
2021/12/07 06:10:52;;;;;;;23.48;11.39;;;;;;;;;;355715;148;857590;-61
2021/12/07 06:11:54;;;;;;;18.01;9.76;;;;;;;;;;355159;148;866643;-61
2021/12/07 06:12:56;;;;;;;21.73;11.51;;;;;;;;;;356088;148;860390;-61
2021/12/07 06:13:57;;;;;;;25.86;12.76;;;;;;;;;;354539;151;859606;-60
2021/12/07 06:14:59;;;;;;;23.34;12.24;;;;;;;;;;355614;149;859018;-61
2021/12/07 06:16:06;;;;;;;21.46;11.55;;;;;;;;;;354696;149;858441;-61
2021/12/07 06:17:04;;;;;;;19.96;10.58;;;;;;;;;;355272;149;857235;-60
2021/12/07 06:18:05;;;;;;;22.87;11.06;;;;;;;;;;357069;149;859266;-59
2021/12/07 06:19:07;;;;;;;19.19;9.80;;;;;;;;;;354757;149;864697;-60
2021/12/07 06:20:10;;;;;;;22.12;9.90;;;;;;;;;;355792;149;856166;-59
2021/12/07 06:21:12;;;;;;;23.11;11.19;;;;;;;;;;355613;149;864709;-62
2021/12/07 06:22:13;;;;;;;22.31;11.53;;;;;;;;;;355190;148;858919;-60
2021/12/07 06:23:16;;;;;;;23.95;12.03;;;;;;;;;;355943;149;865642;-61
2021/12/07 06:24:18;;;;;;;21.27;11.09;;;;;;;;;;353908;148;865457;-61
2021/12/07 06:25:19;;;;;;;23.44;11.60;;;;;;;;;;353773;149;858590;-61
2021/12/07 06:26:23;;;;;;;21.57;10.73;;;;;;;;;;354097;149;864918;-60
2021/12/07 06:27:24;;;;;;;23.58;11.84;;;;;;;;;;353735;148;857203;-61
2021/12/07 06:28:26;;;;;;;18.83;10.90;;;;;;;;;;362000;148;856382;-62
2021/12/07 06:29:28;;;;;;;24.29;12.96;;;;;;;;;;354675;149;856124;-62
2021/12/07 06:30:29;;;;;;;23.73;11.39;;;;;;;;;;355108;149;865371;-61
2021/12/07 06:31:31;;;;;;;24.70;12.05;;;;;;;;;;352616;152;858751;-61
2021/12/07 06:32:33;;;;;;;25.09;12.42;;;;;;;;;;355228;148;865624;-61
2021/12/07 06:33:34;;;;;;;19.28;11.16;;;;;;;;;;354273;150;858883;-61
2021/12/07 06:34:36;;;;;;;23.82;11.39;;;;;;;;;;356623;151;860838;-60
2021/12/07 06:35:37;;;;;;;19.73;11.34;;;;;;;;;;356505;149;857309;-61
2021/12/07 06:36:39;;;;;;;22.36;11.29;;;;;;;;;;353413;150;857455;-60
2021/12/07 06:37:41;;;;;;;22.41;10.61;;;;;;;;;;352900;148;864779;-62
2021/12/07 06:38:44;;;;;;;21.94;11.29;;;;;;;;;;349798;154;866747;-61
2021/12/07 06:39:46;;;;;;;21.45;11.14;;;;;;;;;;353275;148;857513;-61
2021/12/07 06:40:48;;;;;;;22.49;11.35;;;;;;;;;;356925;148;859068;-61
2021/12/07 06:41:49;;;;;;;23.39;10.37;;;;;;;;;;353054;148;864871;-61
2021/12/07 06:42:51;;;;;;;24.56;11.35;;;;;;;;;;344802;152;857576;-61
2021/12/07 06:43:52;;;;;;;21.79;10.64;;;;;;;;;;340419;155;862678;-61
2021/12/07 06:44:54;;;;;;;24.13;11.02;;;;;;;;;;341902;155;857438;-61
2021/12/07 06:45:56;;;;;;;23.84;11.36;;;;;;;;;;344349;156;866677;-61
2021/12/07 06:46:57;;;;;;;21.89;10.71;;;;;;;;;;344963;152;859288;-61
2021/12/07 06:47:59;;;;;;;21.02;10.97;;;;;;;;;;349354;152;857519;-63
2021/12/07 06:49:01;;;;;;;23.29;11.08;;;;;;;;;;346493;152;859160;-61
2021/12/07 06:50:03;;;;;;;22.18;11.64;;;;;;;;;;347032;153;857954;-61
2021/12/07 06:51:04;;;;;;;23.43;10.79;;;;;;;;;;345142;152;864738;-60
2021/12/07 06:52:06;;;;;;;18.45;10.19;;;;;;;;;;344630;152;856110;-60
2021/12/07 06:53:08;;;;;;;19.17;9.79;;;;;;;;;;347545;152;856282;-60
2021/12/07 06:54:09;;;;;;;16.89;9.71;;;;;;;;;;345637;153;856395;-60
2021/12/07 06:55:11;;;;;;;17.23;8.95;;;;;;;;;;347098;152;857200;-59
2021/12/07 06:56:13;;;;;;;22.11;11.37;;;;;;;;;;345990;153;863942;-61
2021/12/07 06:57:14;;;;;;;16.64;9.46;;;;;;;;;;345233;152;856057;-61
2021/12/07 06:58:16;;;;;;;19.11;9.69;;;;;;;;;;345318;153;856690;-60
2021/12/07 06:59:18;;;;;;;17.79;9.52;;;;;;;;;;344465;153;862224;-60
2021/12/07 07:00:20;;;;;;;16.81;9.03;;;;;;;;;;345255;154;856439;-59
2021/12/07 07:01:22;;;;;;;16.60;8.94;;;;;;;;;;337096;156;855961;-60
2021/12/07 07:02:24;;;;;;;15.23;8.36;;;;;;;;;;344363;153;856640;-62
2021/12/07 07:03:25;;;;;;;14.91;8.31;;;;;;;;;;339927;157;859068;-60
2021/12/07 07:04:27;;;;;;;13.91;7.66;;;;;;;;;;344492;154;857168;-61
2021/12/07 07:05:30;;;;;;;14.63;7.73;;;;;;;;;;344088;153;863785;-62
2021/12/07 07:06:31;;;;;;;14.96;7.71;;;;;;;;;;338776;157;856799;-62
2021/12/07 07:07:34;;;;;;;13.02;6.99;;;;;;;;;;344520;154;863842;-63
2021/12/07 07:08:36;;;;;;;12.93;8.07;;;;;;;;;;344249;154;856893;-60
2021/12/07 07:09:38;;;;;;;13.69;7.82;;;;;;;;;;345632;154;864175;-60
2021/12/07 07:10:40;;;;;;;15.41;8.18;;;;;;;;;;344922;156;864010;-59
2021/12/07 07:11:41;;;;;;;21.29;9.45;;;;;;;;;;343856;154;863882;-59
2021/12/07 07:12:43;;;;;;;15.00;7.53;;;;;;;;;;344623;154;857610;-59
2021/12/07 07:13:45;;;;;;;13.66;7.69;;;;;;;;;;342857;154;856179;-60
2021/12/07 07:14:47;;;;;;;12.66;7.82;;;;;;;;;;344362;156;864983;-60
2021/12/07 07:15:48;;;;;;;14.24;7.09;;;;;;;;;;343704;154;864539;-61
2021/12/07 07:16:50;;;;;;;18.98;8.60;;;;;;;;;;346108;153;864602;-60
2021/12/07 07:17:51;;;;;;;15.21;8.64;;;;;;;;;;345838;156;859124;-60
2021/12/07 07:18:53;;;;;;;13.86;7.89;;;;;;;;;;344142;155;864070;-60
2021/12/07 07:19:55;;;;;;;14.31;7.80;;;;;;;;;;341447;155;856386;-60
2021/12/07 07:20:56;;;;;;;14.25;8.15;;;;;;;;;;343665;156;863984;-60
2021/12/07 07:22:01;;;;;;;14.29;7.41;;;;;;;;;;343724;155;856201;-61
2021/12/07 07:23:02;;;;;;;13.41;7.19;;;;;;;;;;342725;154;856300;-61
2021/12/07 07:24:03;;;;;;;11.62;7.78;;;;;;;;;;344147;154;856560;-64
2021/12/07 07:25:05;;;;;;;15.66;7.13;;;;;;;;;;343925;155;856005;-61
2021/12/07 07:26:07;;;;;;;13.27;7.02;;;;;;;;;;341929;153;856004;-61
2021/12/07 07:27:09;;;;;;;15.31;7.64;;;;;;;;;;341749;154;857375;-60
2021/12/07 07:28:10;;;;;;;13.79;6.78;;;;;;;;;;337412;154;857469;-63
2021/12/07 07:29:12;;;;;;;12.06;7.08;;;;;;;;;;341990;154;856201;-60
2021/12/07 07:30:15;;;;;;;14.82;8.43;;;;;;;;;;341049;154;856860;-61
2021/12/07 07:31:17;;;;;;;14.37;7.63;;;;;;;;;;343077;155;856286;-61
2021/12/07 07:32:18;;;;;;;12.16;7.70;;;;;;;;;;343247;156;856259;-64
2021/12/07 07:33:20;;;;;;;13.37;7.65;;;;;;;;;;341498;154;856700;-60
2021/12/07 07:34:21;;;;;;;13.33;7.11;;;;;;;;;;341071;154;856540;-60
2021/12/07 07:35:23;;;;;;;13.17;7.99;;;;;;;;;;342598;154;856276;-62